sensor_id;sensor_type;location;lat;lon;timestamp;pressure;altitude;pressure_sealevel;temperature;humidity
71735;BME280;59577;52.122;5.406;2023-03-03T00:01:38;102635.69;;;1.03;91.31
71735;BME280;59577;52.122;5.406;2023-03-03T00:04:04;102635.69;;;1.03;91.38
71735;BME280;59577;52.122;5.406;2023-03-03T00:06:31;102642.63;;;1.04;91.27
71735;BME280;59577;52.122;5.406;2023-03-03T00:08:57;102639.41;;;1.02;91.50
71735;BME280;59577;52.122;5.406;2023-03-03T00:11:24;102637.28;;;1.04;91.34
71735;BME280;59577;52.122;5.406;2023-03-03T00:13:53;102640.78;;;1.04;91.35
71735;BME280;59577;52.122;5.406;2023-03-03T00:16:24;102626.88;;;1.02;91.28
71735;BME280;59577;52.122;5.406;2023-03-03T00:18:51;102635.59;;;0.98;91.12
71735;BME280;59577;52.122;5.406;2023-03-03T00:21:27;102635.75;;;0.91;91.72
71735;BME280;59577;52.122;5.406;2023-03-03T00:24:14;102634.63;;;0.87;91.92
71735;BME280;59577;52.122;5.406;2023-03-03T00:26:47;102650.13;;;0.90;91.86
71735;BME280;59577;52.122;5.406;2023-03-03T00:29:43;102649.56;;;0.88;91.89
71735;BME280;59577;52.122;5.406;2023-03-03T00:32:17;102651.09;;;0.84;92.09
71735;BME280;59577;52.122;5.406;2023-03-03T00:34:47;102651.91;;;0.84;92.38
71735;BME280;59577;52.122;5.406;2023-03-03T00:37:27;102654.09;;;0.87;92.04
71735;BME280;59577;52.122;5.406;2023-03-03T00:40:21;102661.06;;;0.88;92.85
71735;BME280;59577;52.122;5.406;2023-03-03T00:42:54;102662.97;;;0.93;92.21
71735;BME280;59577;52.122;5.406;2023-03-03T00:50:45;102652.66;;;0.80;92.38
71735;BME280;59577;52.122;5.406;2023-03-03T00:53:16;102655.88;;;0.82;92.46
71735;BME280;59577;52.122;5.406;2023-03-03T00:55:44;102655.88;;;0.82;92.49
71735;BME280;59577;52.122;5.406;2023-03-03T00:58:12;102660.66;;;0.80;92.91
71735;BME280;59577;52.122;5.406;2023-03-03T01:00:39;102663.63;;;0.83;93.21
71735;BME280;59577;52.122;5.406;2023-03-03T01:03:08;102659.91;;;0.84;93.12
71735;BME280;59577;52.122;5.406;2023-03-03T01:05:35;102655.03;;;0.81;93.32
71735;BME280;59577;52.122;5.406;2023-03-03T01:08:02;102660.69;;;0.85;93.39
71735;BME280;59577;52.122;5.406;2023-03-03T01:10:32;102670.88;;;0.88;93.33
71735;BME280;59577;52.122;5.406;2023-03-03T01:12:59;102664.44;;;0.84;93.44
71735;BME280;59577;52.122;5.406;2023-03-03T01:15:26;102665.78;;;0.86;93.86
71735;BME280;59577;52.122;5.406;2023-03-03T01:17:54;102668.00;;;0.89;93.42
71735;BME280;59577;52.122;5.406;2023-03-03T01:20:21;102670.50;;;0.96;93.71
71735;BME280;59577;52.122;5.406;2023-03-03T01:22:48;102666.06;;;1.02;93.37
71735;BME280;59577;52.122;5.406;2023-03-03T01:25:15;102666.16;;;1.07;93.69
71735;BME280;59577;52.122;5.406;2023-03-03T01:27:41;102666.00;;;1.13;93.44
71735;BME280;59577;52.122;5.406;2023-03-03T01:30:08;102660.97;;;1.17;93.34
71735;BME280;59577;52.122;5.406;2023-03-03T01:32:35;102665.19;;;1.13;93.36
71735;BME280;59577;52.122;5.406;2023-03-03T01:35:02;102665.75;;;1.15;93.28
71735;BME280;59577;52.122;5.406;2023-03-03T01:37:29;102661.72;;;1.12;93.20
71735;BME280;59577;52.122;5.406;2023-03-03T01:39:55;102657.75;;;1.15;93.37
71735;BME280;59577;52.122;5.406;2023-03-03T01:42:22;102662.03;;;1.16;92.98
71735;BME280;59577;52.122;5.406;2023-03-03T01:47:35;102665.19;;;1.13;93.07
71735;BME280;59577;52.122;5.406;2023-03-03T01:50:11;102673.09;;;1.08;92.83
71735;BME280;59577;52.122;5.406;2023-03-03T01:52:42;102668.72;;;1.02;93.30
71735;BME280;59577;52.122;5.406;2023-03-03T01:55:17;102673.50;;;1.00;93.24
71735;BME280;59577;52.122;5.406;2023-03-03T01:57:57;102668.41;;;0.98;93.27
71735;BME280;59577;52.122;5.406;2023-03-03T02:00:25;102667.94;;;1.01;93.26
71735;BME280;59577;52.122;5.406;2023-03-03T02:02:53;102670.91;;;1.05;93.61
71735;BME280;59577;52.122;5.406;2023-03-03T02:05:20;102675.84;;;0.96;93.12
71735;BME280;59577;52.122;5.406;2023-03-03T02:07:47;102668.41;;;0.98;93.58
71735;BME280;59577;52.122;5.406;2023-03-03T02:10:16;102669.22;;;0.99;93.23
71735;BME280;59577;52.122;5.406;2023-03-03T02:12:53;102664.53;;;0.89;93.50
71735;BME280;59577;52.122;5.406;2023-03-03T02:15:26;102667.44;;;0.87;93.77
71735;BME280;59577;52.122;5.406;2023-03-03T02:17:55;102663.72;;;0.88;93.47
71735;BME280;59577;52.122;5.406;2023-03-03T02:23:12;102666.63;;;0.87;93.51
71735;BME280;59577;52.122;5.406;2023-03-03T02:25:58;102669.16;;;0.93;93.88
71735;BME280;59577;52.122;5.406;2023-03-03T02:28:31;102659.75;;;0.91;93.33
71735;BME280;59577;52.122;5.406;2023-03-03T02:30:59;102663.38;;;0.85;93.16
71735;BME280;59577;52.122;5.406;2023-03-03T02:33:26;102664.53;;;0.89;93.45
71735;BME280;59577;52.122;5.406;2023-03-03T02:35:53;102669.72;;;0.96;93.35
71735;BME280;59577;52.122;5.406;2023-03-03T02:38:27;102670.69;;;1.06;93.29
71735;BME280;59577;52.122;5.406;2023-03-03T02:43:38;102666.63;;;1.04;92.72
71735;BME280;59577;52.122;5.406;2023-03-03T02:46:06;102665.97;;;0.97;92.31
71735;BME280;59577;52.122;5.406;2023-03-03T02:48:33;102663.97;;;0.87;92.72
71735;BME280;59577;52.122;5.406;2023-03-03T02:51:00;102664.53;;;0.89;93.13
71735;BME280;59577;52.122;5.406;2023-03-03T02:53:26;102663.53;;;0.95;93.08
71735;BME280;59577;52.122;5.406;2023-03-03T02:55:53;102669.72;;;0.96;92.99
71735;BME280;59577;52.122;5.406;2023-03-03T02:58:19;102671.63;;;1.00;93.30
71735;BME280;59577;52.122;5.406;2023-03-03T03:00:46;102675.69;;;1.03;93.13
71735;BME280;59577;52.122;5.406;2023-03-03T03:03:13;102673.09;;;1.08;93.49
71735;BME280;59577;52.122;5.406;2023-03-03T03:05:40;102666.47;;;1.10;93.10
71735;BME280;59577;52.122;5.406;2023-03-03T03:08:06;102677.88;;;1.06;93.31
71735;BME280;59577;52.122;5.406;2023-03-03T03:10:34;102673.25;;;1.01;93.33
71735;BME280;59577;52.122;5.406;2023-03-03T03:13:01;102683.59;;;0.98;93.48
71735;BME280;59577;52.122;5.406;2023-03-03T03:15:27;102678.34;;;1.03;93.59
71735;BME280;59577;52.122;5.406;2023-03-03T03:17:54;102674.97;;;1.07;93.46
71735;BME280;59577;52.122;5.406;2023-03-03T03:20:21;102670.75;;;1.11;93.64
71735;BME280;59577;52.122;5.406;2023-03-03T03:22:47;102666.47;;;1.10;93.67
71735;BME280;59577;52.122;5.406;2023-03-03T03:25:14;102670.28;;;1.15;93.61
71735;BME280;59577;52.122;5.406;2023-03-03T03:27:40;102667.63;;;1.15;93.07
71735;BME280;59577;52.122;5.406;2023-03-03T03:30:07;102662.84;;;1.17;93.42
71735;BME280;59577;52.122;5.406;2023-03-03T03:32:34;102666.56;;;1.16;92.84
71735;BME280;59577;52.122;5.406;2023-03-03T03:35:01;102668.09;;;1.11;93.05
71735;BME280;59577;52.122;5.406;2023-03-03T03:37:27;102673.25;;;1.01;92.90
71735;BME280;59577;52.122;5.406;2023-03-03T03:39:54;102668.16;;;1.00;93.26
71735;BME280;59577;52.122;5.406;2023-03-03T03:42:21;102671.38;;;1.02;93.32
71735;BME280;59577;52.122;5.406;2023-03-03T03:44:48;102670.84;;;1.00;93.61
71735;BME280;59577;52.122;5.406;2023-03-03T03:47:16;102677.78;;;1.01;93.90
71735;BME280;59577;52.122;5.406;2023-03-03T03:49:42;102675.94;;;1.01;93.55
71735;BME280;59577;52.122;5.406;2023-03-03T03:53:06;102684.72;;;1.02;93.34
71735;BME280;59577;52.122;5.406;2023-03-03T03:55:32;102680.94;;;0.98;93.51
71735;BME280;59577;52.122;5.406;2023-03-03T03:57:59;102679.94;;;1.04;93.56
71735;BME280;59577;52.122;5.406;2023-03-03T04:00:26;102684.81;;;1.07;93.87
71735;BME280;59577;52.122;5.406;2023-03-03T04:02:52;102690.22;;;1.12;93.54
71735;BME280;59577;52.122;5.406;2023-03-03T04:05:19;102691.84;;;1.13;93.29
71735;BME280;59577;52.122;5.406;2023-03-03T04:07:46;102688.72;;;1.16;93.56
71735;BME280;59577;52.122;5.406;2023-03-03T04:10:12;102691.63;;;1.15;93.67
71735;BME280;59577;52.122;5.406;2023-03-03T04:12:39;102691.38;;;1.16;93.35
71735;BME280;59577;52.122;5.406;2023-03-03T04:15:08;102689.75;;;1.15;93.42
71735;BME280;59577;52.122;5.406;2023-03-03T04:17:35;102685.72;;;1.12;93.59
71735;BME280;59577;52.122;5.406;2023-03-03T04:20:02;102683.84;;;1.13;93.82
71735;BME280;59577;52.122;5.406;2023-03-03T04:22:30;102688.63;;;1.11;93.47
71735;BME280;59577;52.122;5.406;2023-03-03T04:25:04;102690.22;;;1.12;93.51
71735;BME280;59577;52.122;5.406;2023-03-03T04:27:33;102689.59;;;1.05;93.54
71735;BME280;59577;52.122;5.406;2023-03-03T04:30:00;102685.22;;;0.99;93.52
71735;BME280;59577;52.122;5.406;2023-03-03T04:32:26;102683.13;;;1.01;94.05
71735;BME280;59577;52.122;5.406;2023-03-03T04:34:54;102690.56;;;0.99;93.75
71735;BME280;59577;52.122;5.406;2023-03-03T04:37:34;102682.47;;;0.93;94.00
71735;BME280;59577;52.122;5.406;2023-03-03T04:40:01;102681.66;;;0.93;93.89
71735;BME280;59577;52.122;5.406;2023-03-03T04:42:28;102687.31;;;0.97;93.65
71735;BME280;59577;52.122;5.406;2023-03-03T04:44:55;102690.47;;;0.93;93.93
71735;BME280;59577;52.122;5.406;2023-03-03T04:47:21;102692.06;;;0.94;94.16
71735;BME280;59577;52.122;5.406;2023-03-03T04:49:48;102694.19;;;0.92;94.46
71735;BME280;59577;52.122;5.406;2023-03-03T04:52:15;102695.22;;;0.91;94.54
71735;BME280;59577;52.122;5.406;2023-03-03T04:54:41;102699.75;;;0.91;94.73
71735;BME280;59577;52.122;5.406;2023-03-03T04:57:08;102696.03;;;0.92;94.62
71735;BME280;59577;52.122;5.406;2023-03-03T04:59:35;102700.06;;;0.94;95.03
71735;BME280;59577;52.122;5.406;2023-03-03T05:02:02;102699.03;;;0.96;95.03
71735;BME280;59577;52.122;5.406;2023-03-03T05:04:30;102700.72;;;1.02;95.29
71735;BME280;59577;52.122;5.406;2023-03-03T05:06:56;102692.56;;;1.08;94.76
71735;BME280;59577;52.122;5.406;2023-03-03T05:09:23;102691.06;;;1.12;95.02
71735;BME280;59577;52.122;5.406;2023-03-03T05:11:50;102687.00;;;1.10;95.00
71735;BME280;59577;52.122;5.406;2023-03-03T05:14:17;102685.47;;;1.14;94.93
71735;BME280;59577;52.122;5.406;2023-03-03T05:16:43;102687.16;;;1.20;94.84
71735;BME280;59577;52.122;5.406;2023-03-03T05:19:10;102682.06;;;1.19;94.83
71735;BME280;59577;52.122;5.406;2023-03-03T05:21:37;102690.41;;;1.22;95.26
71735;BME280;59577;52.122;5.406;2023-03-03T05:24:12;102687.25;;;1.25;95.13
71735;BME280;59577;52.122;5.406;2023-03-03T05:26:39;102692.91;;;1.29;94.98
71735;BME280;59577;52.122;5.406;2023-03-03T05:29:07;102680.88;;;1.26;95.13
71735;BME280;59577;52.122;5.406;2023-03-03T05:31:34;102689.44;;;1.28;95.02
71735;BME280;59577;52.122;5.406;2023-03-03T05:34:01;102687.56;;;1.29;95.39
71735;BME280;59577;52.122;5.406;2023-03-03T05:36:28;102685.38;;;1.26;95.35
71735;BME280;59577;52.122;5.406;2023-03-03T05:38:54;102687.25;;;1.25;95.19
71735;BME280;59577;52.122;5.406;2023-03-03T05:41:21;102687.50;;;1.24;95.04
71735;BME280;59577;52.122;5.406;2023-03-03T05:43:48;102690.72;;;1.26;95.37
71735;BME280;59577;52.122;5.406;2023-03-03T05:46:14;102693.94;;;1.28;95.52
71735;BME280;59577;52.122;5.406;2023-03-03T05:48:41;102691.38;;;1.33;95.34
71735;BME280;59577;52.122;5.406;2023-03-03T05:51:07;102698.09;;;1.36;95.63
71735;BME280;59577;52.122;5.406;2023-03-03T05:53:34;102694.13;;;1.38;95.78
71735;BME280;59577;52.122;5.406;2023-03-03T05:56:01;102686.69;;;1.40;95.57
71735;BME280;59577;52.122;5.406;2023-03-03T05:58:27;102690.09;;;1.36;95.38
71735;BME280;59577;52.122;5.406;2023-03-03T06:00:54;102697.03;;;1.37;95.88
71735;BME280;59577;52.122;5.406;2023-03-03T06:03:21;102692.03;;;1.40;95.82
71735;BME280;59577;52.122;5.406;2023-03-03T06:05:47;102693.78;;;1.35;95.64
71735;BME280;59577;52.122;5.406;2023-03-03T06:08:14;102698.31;;;1.34;95.97
71735;BME280;59577;52.122;5.406;2023-03-03T06:10:40;102702.34;;;1.37;96.04
71735;BME280;59577;52.122;5.406;2023-03-03T06:13:07;102700.75;;;1.36;95.92
71735;BME280;59577;52.122;5.406;2023-03-03T06:15:33;102703.44;;;1.36;96.33
71735;BME280;59577;52.122;5.406;2023-03-03T06:18:00;102709.31;;;1.38;96.26
71735;BME280;59577;52.122;5.406;2023-03-03T06:20:26;102711.19;;;1.37;96.59
71735;BME280;59577;52.122;5.406;2023-03-03T06:22:53;102716.75;;;1.36;96.62
71735;BME280;59577;52.122;5.406;2023-03-03T06:25:20;102716.03;;;1.40;96.63
71735;BME280;59577;52.122;5.406;2023-03-03T06:27:46;102720.00;;;1.38;96.56
71735;BME280;59577;52.122;5.406;2023-03-03T06:30:13;102719.50;;;1.41;96.89
71735;BME280;59577;52.122;5.406;2023-03-03T06:32:39;102715.53;;;1.43;96.72
71735;BME280;59577;52.122;5.406;2023-03-03T06:35:06;102715.31;;;1.45;96.80
71735;BME280;59577;52.122;5.406;2023-03-03T06:37:33;102717.72;;;1.46;97.17
71735;BME280;59577;52.122;5.406;2023-03-03T06:39:59;102718.78;;;1.45;97.06
71735;BME280;59577;52.122;5.406;2023-03-03T06:42:26;102723.06;;;1.46;97.23
71735;BME280;59577;52.122;5.406;2023-03-03T06:44:53;102735.59;;;1.46;97.04
71735;BME280;59577;52.122;5.406;2023-03-03T06:47:19;102728.41;;;1.46;97.18
71735;BME280;59577;52.122;5.406;2023-03-03T06:49:46;102735.28;;;1.42;97.23
71735;BME280;59577;52.122;5.406;2023-03-03T06:52:18;102736.88;;;1.43;97.70
71735;BME280;59577;52.122;5.406;2023-03-03T06:54:45;102741.97;;;1.45;97.89
71735;BME280;59577;52.122;5.406;2023-03-03T06:57:32;102742.22;;;1.43;97.80
71735;BME280;59577;52.122;5.406;2023-03-03T07:00:10;102746.53;;;1.44;98.38
71735;BME280;59577;52.122;5.406;2023-03-03T07:02:38;102748.47;;;1.49;98.42
71735;BME280;59577;52.122;5.406;2023-03-03T07:05:10;102747.41;;;1.50;98.27
71735;BME280;59577;52.122;5.406;2023-03-03T07:07:39;102752.50;;;1.52;98.53
71735;BME280;59577;52.122;5.406;2023-03-03T07:10:15;102750.72;;;1.57;98.47
71735;BME280;59577;52.122;5.406;2023-03-03T07:12:43;102758.72;;;1.57;98.71
71735;BME280;59577;52.122;5.406;2023-03-03T07:15:20;102764.28;;;1.56;98.47
71735;BME280;59577;52.122;5.406;2023-03-03T07:17:51;102763.19;;;1.52;98.77
71735;BME280;59577;52.122;5.406;2023-03-03T07:20:23;102772.81;;;1.53;98.90
71735;BME280;59577;52.122;5.406;2023-03-03T07:22:50;102764.56;;;1.54;98.91
71735;BME280;59577;52.122;5.406;2023-03-03T07:27:46;102779.34;;;1.62;99.11
71735;BME280;59577;52.122;5.406;2023-03-03T07:30:21;102771.91;;;1.64;99.16
71735;BME280;59577;52.122;5.406;2023-03-03T07:32:52;102772.16;;;1.62;99.11
71735;BME280;59577;52.122;5.406;2023-03-03T07:35:37;102769.72;;;1.61;99.33
71735;BME280;59577;52.122;5.406;2023-03-03T07:38:17;102773.06;;;1.68;99.27
71735;BME280;59577;52.122;5.406;2023-03-03T07:40:48;102784.13;;;1.77;99.36
71735;BME280;59577;52.122;5.406;2023-03-03T07:43:28;102772.72;;;1.81;99.29
71735;BME280;59577;52.122;5.406;2023-03-03T07:48:38;102787.03;;;1.92;99.11
71735;BME280;59577;52.122;5.406;2023-03-03T07:51:37;102790.91;;;2.01;98.61
71735;BME280;59577;52.122;5.406;2023-03-03T07:56:51;102795.25;;;2.07;98.68
71735;BME280;59577;52.122;5.406;2023-03-03T07:59:21;102794.22;;;2.09;98.26
71735;BME280;59577;52.122;5.406;2023-03-03T08:01:54;102794.44;;;2.07;98.10
71735;BME280;59577;52.122;5.406;2023-03-03T08:04:23;102799.56;;;2.09;98.13
71735;BME280;59577;52.122;5.406;2023-03-03T08:06:57;102798.06;;;2.18;98.17
71735;BME280;59577;52.122;5.406;2023-03-03T08:09:30;102806.75;;;2.25;98.38
71735;BME280;59577;52.122;5.406;2023-03-03T08:14:36;102808.47;;;2.36;98.01
71735;BME280;59577;52.122;5.406;2023-03-03T08:19:42;102817.00;;;2.33;97.43
71735;BME280;59577;52.122;5.406;2023-03-03T08:22:18;102818.13;;;2.37;97.47
71735;BME280;59577;52.122;5.406;2023-03-03T08:24:45;102828.66;;;2.44;97.51
71735;BME280;59577;52.122;5.406;2023-03-03T08:27:11;102830.88;;;2.52;97.62
71735;BME280;59577;52.122;5.406;2023-03-03T08:29:38;102826.34;;;2.53;97.42
71735;BME280;59577;52.122;5.406;2023-03-03T08:32:04;102831.72;;;2.53;97.48
71735;BME280;59577;52.122;5.406;2023-03-03T08:34:31;102827.97;;;2.54;97.43
71735;BME280;59577;52.122;5.406;2023-03-03T08:36:57;102829.09;;;2.58;97.23
71735;BME280;59577;52.122;5.406;2023-03-03T08:39:24;102835.06;;;2.65;97.59
71735;BME280;59577;52.122;5.406;2023-03-03T08:41:50;102837.97;;;2.63;97.40
71735;BME280;59577;52.122;5.406;2023-03-03T08:44:17;102836.19;;;2.69;97.48
71735;BME280;59577;52.122;5.406;2023-03-03T08:46:45;102836.63;;;2.83;97.35
71735;BME280;59577;52.122;5.406;2023-03-03T08:49:12;102828.47;;;2.95;97.32
71735;BME280;59577;52.122;5.406;2023-03-03T08:51:38;102823.47;;;3.04;97.18
71735;BME280;59577;52.122;5.406;2023-03-03T08:54:05;102838.22;;;3.06;96.98
71735;BME280;59577;52.122;5.406;2023-03-03T08:56:32;102830.75;;;3.08;96.57
71735;BME280;59577;52.122;5.406;2023-03-03T08:58:59;102825.72;;;3.12;96.43
71735;BME280;59577;52.122;5.406;2023-03-03T09:01:29;102833.31;;;3.25;96.55
71735;BME280;59577;52.122;5.406;2023-03-03T09:03:56;102823.59;;;3.41;96.17
71735;BME280;59577;52.122;5.406;2023-03-03T09:06:23;102821.78;;;3.47;95.09
71735;BME280;59577;52.122;5.406;2023-03-03T09:08:49;102829.81;;;3.47;94.88
71735;BME280;59577;52.122;5.406;2023-03-03T09:11:24;102828.06;;;3.63;94.69
71735;BME280;59577;52.122;5.406;2023-03-03T09:14:12;102823.34;;;3.75;94.49
71735;BME280;59577;52.122;5.406;2023-03-03T09:16:59;102823.97;;;3.87;94.26
71735;BME280;59577;52.122;5.406;2023-03-03T09:19:31;102832.28;;;3.91;93.17
71735;BME280;59577;52.122;5.406;2023-03-03T09:22:16;102828.66;;;4.07;93.47
71735;BME280;59577;52.122;5.406;2023-03-03T09:24:45;102827.63;;;4.08;93.00
71735;BME280;59577;52.122;5.406;2023-03-03T09:27:33;102830.88;;;4.16;92.04
71735;BME280;59577;52.122;5.406;2023-03-03T09:30:23;102833.59;;;4.21;92.51
71735;BME280;59577;52.122;5.406;2023-03-03T09:32:57;102828.28;;;4.31;91.99
71735;BME280;59577;52.122;5.406;2023-03-03T09:35:37;102829.34;;;4.30;90.98
71735;BME280;59577;52.122;5.406;2023-03-03T09:49:09;102837.53;;;4.56;90.17
71735;BME280;59577;52.122;5.406;2023-03-03T09:51:54;102834.06;;;4.55;90.13
71735;BME280;59577;52.122;5.406;2023-03-03T09:54:38;102837.59;;;4.66;89.42
71735;BME280;59577;52.122;5.406;2023-03-03T09:57:20;102842.44;;;4.69;89.34
71735;BME280;59577;52.122;5.406;2023-03-03T10:06:10;102837.72;;;4.97;88.17
71735;BME280;59577;52.122;5.406;2023-03-03T10:11:39;102840.19;;;5.39;87.70
71735;BME280;59577;52.122;5.406;2023-03-03T10:14:25;102830.81;;;5.83;87.89
71735;BME280;59577;52.122;5.406;2023-03-03T10:20:14;102827.41;;;7.92;78.29
71735;BME280;59577;52.122;5.406;2023-03-03T10:22:52;102831.56;;;7.45;78.56
71735;BME280;59577;52.122;5.406;2023-03-03T10:25:41;102822.13;;;8.59;79.32
71735;BME280;59577;52.122;5.406;2023-03-03T10:31:05;102821.41;;;10.56;70.55
71735;BME280;59577;52.122;5.406;2023-03-03T10:33:53;102825.81;;;10.66;67.02
71735;BME280;59577;52.122;5.406;2023-03-03T10:36:42;102822.75;;;9.98;66.06
71735;BME280;59577;52.122;5.406;2023-03-03T10:39:41;102828.13;;;9.51;67.85
71735;BME280;59577;52.122;5.406;2023-03-03T10:45:34;102826.72;;;9.21;68.46
71735;BME280;59577;52.122;5.406;2023-03-03T10:50:58;102828.66;;;10.47;66.58
71735;BME280;59577;52.122;5.406;2023-03-03T10:54:06;102824.28;;;10.18;66.50
71735;BME280;59577;52.122;5.406;2023-03-03T10:57:25;102831.66;;;10.31;69.77
71735;BME280;59577;52.122;5.406;2023-03-03T11:02:47;102825.41;;;11.45;66.26
71735;BME280;59577;52.122;5.406;2023-03-03T11:08:26;102820.06;;;10.26;65.62
71735;BME280;59577;52.122;5.406;2023-03-03T11:11:06;102827.09;;;10.13;63.97
71735;BME280;59577;52.122;5.406;2023-03-03T11:34:06;102796.66;;;12.47;59.23
71735;BME280;59577;52.122;5.406;2023-03-03T11:36:44;102802.66;;;12.84;57.71
71735;BME280;59577;52.122;5.406;2023-03-03T11:39:21;102799.16;;;13.36;55.03
71735;BME280;59577;52.122;5.406;2023-03-03T11:41:54;102794.66;;;13.05;59.12
71735;BME280;59577;52.122;5.406;2023-03-03T11:44:29;102796.13;;;14.23;60.44
71735;BME280;59577;52.122;5.406;2023-03-03T11:47:01;102800.41;;;13.47;56.24
71735;BME280;59577;52.122;5.406;2023-03-03T11:55:26;102797.13;;;11.69;60.34
71735;BME280;59577;52.122;5.406;2023-03-03T12:01:01;102792.56;;;13.46;53.68
71735;BME280;59577;52.122;5.406;2023-03-03T12:03:39;102794.97;;;13.47;52.51
71735;BME280;59577;52.122;5.406;2023-03-03T12:09:08;102791.91;;;12.62;53.58
71735;BME280;59577;52.122;5.406;2023-03-03T12:14:51;102780.19;;;11.63;57.35
71735;BME280;59577;52.122;5.406;2023-03-03T12:18:22;102781.03;;;11.73;57.36
71735;BME280;59577;52.122;5.406;2023-03-03T12:34:53;102768.75;;;10.07;64.16
71735;BME280;59577;52.122;5.406;2023-03-03T12:37:57;102766.88;;;10.21;63.97
71735;BME280;59577;52.122;5.406;2023-03-03T12:40:32;102771.06;;;10.55;64.20
71735;BME280;59577;52.122;5.406;2023-03-03T12:43:22;102759.50;;;11.00;62.04
71735;BME280;59577;52.122;5.406;2023-03-03T12:48:58;102765.16;;;10.53;60.26
71735;BME280;59577;52.122;5.406;2023-03-03T12:57:48;102755.84;;;10.18;58.13
71735;BME280;59577;52.122;5.406;2023-03-03T13:00:22;102760.03;;;10.24;58.02
71735;BME280;59577;52.122;5.406;2023-03-03T13:03:21;102753.63;;;10.20;61.70
71735;BME280;59577;52.122;5.406;2023-03-03T13:14:34;102754.53;;;10.15;63.31
71735;BME280;59577;52.122;5.406;2023-03-03T13:17:17;102754.03;;;10.13;63.79
71735;BME280;59577;52.122;5.406;2023-03-03T13:19:58;102756.53;;;10.09;63.83
71735;BME280;59577;52.122;5.406;2023-03-03T13:23:12;102759.13;;;10.01;63.80
71735;BME280;59577;52.122;5.406;2023-03-03T13:25:52;102753.44;;;10.02;64.00
71735;BME280;59577;52.122;5.406;2023-03-03T13:28:37;102750.63;;;9.93;63.30
71735;BME280;59577;52.122;5.406;2023-03-03T13:31:14;102748.59;;;9.85;62.83
71735;BME280;59577;52.122;5.406;2023-03-03T13:33:54;102749.91;;;9.88;63.34
71735;BME280;59577;52.122;5.406;2023-03-03T13:36:25;102740.41;;;9.90;64.02
71735;BME280;59577;52.122;5.406;2023-03-03T13:39:12;102751.81;;;9.87;63.39
71735;BME280;59577;52.122;5.406;2023-03-03T13:41:53;102752.50;;;9.79;63.85
71735;BME280;59577;52.122;5.406;2023-03-03T13:44:40;102753.28;;;9.66;62.51
71735;BME280;59577;52.122;5.406;2023-03-03T13:50:03;102751.44;;;9.47;64.05
71735;BME280;59577;52.122;5.406;2023-03-03T13:55:28;102743.16;;;9.25;65.11
71735;BME280;59577;52.122;5.406;2023-03-03T13:58:47;102747.25;;;9.22;65.26
71735;BME280;59577;52.122;5.406;2023-03-03T14:01:13;102747.19;;;9.08;64.97
71735;BME280;59577;52.122;5.406;2023-03-03T14:03:48;102740.78;;;9.04;65.08
71735;BME280;59577;52.122;5.406;2023-03-03T14:06:25;102734.47;;;8.95;65.81
71735;BME280;59577;52.122;5.406;2023-03-03T14:09:05;102747.00;;;8.85;65.45
71735;BME280;59577;52.122;5.406;2023-03-03T14:11:45;102745.03;;;8.72;64.59
71735;BME280;59577;52.122;5.406;2023-03-03T14:16:49;102744.66;;;8.60;65.16
71735;BME280;59577;52.122;5.406;2023-03-03T14:19:43;102740.66;;;8.57;64.89
71735;BME280;59577;52.122;5.406;2023-03-03T14:22:29;102738.16;;;8.61;65.39
71735;BME280;59577;52.122;5.406;2023-03-03T14:25:12;102737.38;;;8.60;64.46
71735;BME280;59577;52.122;5.406;2023-03-03T14:35:36;102727.00;;;8.49;65.16
71735;BME280;59577;52.122;5.406;2023-03-03T14:38:18;102727.78;;;8.49;65.69
71735;BME280;59577;52.122;5.406;2023-03-03T14:40:46;102729.63;;;8.54;65.32
71735;BME280;59577;52.122;5.406;2023-03-03T14:43:25;102719.63;;;8.54;64.78
71735;BME280;59577;52.122;5.406;2023-03-03T14:45:53;102725.25;;;8.58;64.37
71735;BME280;59577;52.122;5.406;2023-03-03T14:48:26;102724.66;;;8.61;64.90
71735;BME280;59577;52.122;5.406;2023-03-03T14:51:15;102721.97;;;8.61;64.60
71735;BME280;59577;52.122;5.406;2023-03-03T14:53:49;102716.34;;;8.57;64.40
71735;BME280;59577;52.122;5.406;2023-03-03T14:56:25;102722.84;;;8.56;65.15
71735;BME280;59577;52.122;5.406;2023-03-03T14:59:14;102713.28;;;8.45;65.90
71735;BME280;59577;52.122;5.406;2023-03-03T15:01:42;102712.53;;;8.39;66.16
71735;BME280;59577;52.122;5.406;2023-03-03T15:11:57;102711.09;;;8.23;65.30
71735;BME280;59577;52.122;5.406;2023-03-03T15:14:29;102713.59;;;8.19;65.63
71735;BME280;59577;52.122;5.406;2023-03-03T15:17:15;102711.97;;;8.18;65.73
71735;BME280;59577;52.122;5.406;2023-03-03T15:19:52;102707.38;;;8.19;66.27
71735;BME280;59577;52.122;5.406;2023-03-03T15:34:12;102700.72;;;7.87;67.40
71735;BME280;59577;52.122;5.406;2023-03-03T15:36:52;102697.53;;;7.85;67.46
71735;BME280;59577;52.122;5.406;2023-03-03T15:39:30;102704.88;;;7.79;67.60
71735;BME280;59577;52.122;5.406;2023-03-03T15:44:53;102705.03;;;7.64;67.75
71735;BME280;59577;52.122;5.406;2023-03-03T15:47:24;102698.03;;;7.63;68.03
71735;BME280;59577;52.122;5.406;2023-03-03T15:50:20;102697.00;;;7.59;67.37
71735;BME280;59577;52.122;5.406;2023-03-03T16:03:32;102692.81;;;7.42;67.64
71735;BME280;59577;52.122;5.406;2023-03-03T16:06:30;102690.50;;;7.36;67.81
71735;BME280;59577;52.122;5.406;2023-03-03T16:23:21;102696.06;;;7.15;67.37
71735;BME280;59577;52.122;5.406;2023-03-03T16:26:20;102702.56;;;7.09;67.56
71735;BME280;59577;52.122;5.406;2023-03-03T16:31:33;102700.22;;;6.97;67.45
71735;BME280;59577;52.122;5.406;2023-03-03T16:39:35;102698.97;;;6.84;67.96
71735;BME280;59577;52.122;5.406;2023-03-03T16:42:27;102699.78;;;6.80;67.94
71735;BME280;59577;52.122;5.406;2023-03-03T16:53:31;102694.22;;;6.66;68.50
71735;BME280;59577;52.122;5.406;2023-03-03T17:04:44;102698.13;;;6.44;68.84
71735;BME280;59577;52.122;5.406;2023-03-03T17:07:48;102711.63;;;6.39;69.03
71735;BME280;59577;52.122;5.406;2023-03-03T17:10:28;102704.88;;;6.36;69.22
71735;BME280;59577;52.122;5.406;2023-03-03T17:15:52;102708.69;;;6.30;69.56